createdAt,value
2017-05-19T07:01:17.842Z,944
2017-05-19T07:01:50.113Z,908
2017-05-19T07:02:22.391Z,880
2017-05-19T07:02:54.695Z,852
2017-05-19T07:03:26.984Z,832
2017-05-19T07:03:59.270Z,820
2017-05-19T07:04:31.556Z,808
2017-05-19T07:05:03.850Z,812
2017-05-19T07:05:36.127Z,812
2017-05-19T07:06:08.398Z,820
2017-05-19T07:06:40.690Z,832
2017-05-19T07:07:12.972Z,836
2017-05-19T07:07:45.304Z,852
2017-05-19T07:08:17.617Z,864
2017-05-19T07:08:49.919Z,880
2017-05-19T07:09:22.275Z,896
2017-05-19T07:09:54.556Z,912
2017-05-19T07:10:26.859Z,924
2017-05-19T07:10:59.142Z,932
2017-05-19T07:11:31.302Z,944
2017-05-19T07:12:03.628Z,960
2017-05-19T07:12:35.928Z,968
2017-05-19T07:13:08.197Z,980
2017-05-19T07:13:40.481Z,1004
2017-05-19T07:14:13.716Z,1020
2017-05-19T07:14:46.010Z,1040
2017-05-19T07:15:18.298Z,1052
2017-05-19T07:15:50.590Z,1056
2017-05-19T07:16:22.877Z,1056
2017-05-19T07:16:55.492Z,1052
2017-05-19T07:18:47.301Z,1064
2017-05-19T07:19:19.598Z,1072
2017-05-19T07:19:51.935Z,1084
2017-05-19T07:20:24.277Z,1100
2017-05-19T07:20:56.563Z,1116
2017-05-19T07:21:28.860Z,1136
2017-05-19T07:22:01.159Z,1156
2017-05-19T07:22:33.437Z,1180
2017-05-19T07:23:05.733Z,1208
2017-05-19T07:23:38.002Z,1236
2017-05-19T07:24:10.303Z,1260
2017-05-19T07:24:42.583Z,1284
2017-05-19T07:25:14.880Z,1308
2017-05-19T07:25:47.179Z,1320
2017-05-19T07:26:19.495Z,1332
2017-05-19T07:26:51.773Z,1336
2017-05-19T07:27:24.069Z,1344
2017-05-19T07:27:56.367Z,1352
2017-05-19T07:28:28.658Z,1356
2017-05-19T07:29:00.951Z,1364
2017-05-19T07:29:33.248Z,1368
2017-05-19T07:30:05.526Z,1372
2017-05-19T07:30:37.810Z,1376
2017-05-19T07:31:10.084Z,1372
2017-05-19T07:31:42.392Z,1376
2017-05-19T07:32:14.674Z,1372
2017-05-19T07:32:46.954Z,1372
2017-05-19T07:33:19.235Z,1368
2017-05-19T07:33:51.501Z,1364
2017-05-19T07:34:23.788Z,1360
2017-05-19T07:34:56.071Z,1352
2017-05-19T07:35:28.362Z,1336
2017-05-19T07:36:00.643Z,1320
2017-05-19T07:36:32.934Z,1300
2017-05-19T07:37:05.226Z,1272
2017-05-19T07:37:37.520Z,1244
2017-05-19T07:38:09.812Z,1224
2017-05-19T07:38:42.108Z,1208
2017-05-19T07:39:14.396Z,1196
2017-05-19T07:39:46.662Z,1192
2017-05-19T07:40:18.937Z,1196
2017-05-19T07:40:51.221Z,1204
2017-05-19T07:41:23.496Z,1212
2017-05-19T07:41:55.775Z,1224
2017-05-19T07:42:28.049Z,1224
2017-05-19T07:43:00.342Z,1232
2017-05-19T07:43:32.648Z,1232
2017-05-19T07:44:04.932Z,1236
2017-05-19T07:44:37.200Z,1240
2017-05-19T07:45:09.467Z,1244
2017-05-19T07:45:41.763Z,1240
2017-05-19T07:46:14.037Z,1244
2017-05-19T07:46:46.327Z,1240
2017-05-19T07:47:18.648Z,1232
2017-05-19T07:47:51.120Z,1228
2017-05-19T07:48:23.434Z,1228
2017-05-19T07:48:55.727Z,1220
2017-05-19T07:49:28.020Z,1216
2017-05-19T07:50:00.307Z,1216
2017-05-19T07:50:32.576Z,1220
2017-05-19T07:51:04.852Z,1224
2017-05-19T07:51:37.195Z,1244
2017-05-19T07:52:09.494Z,1268
2017-05-19T07:52:41.803Z,1288
2017-05-19T07:53:14.121Z,1312
2017-05-19T07:53:46.403Z,1344
